sensor_id;sensor_type;location;lat;lon;timestamp;P1;durP1;ratioP1;P2;durP2;ratioP2
66012;SDS011;52783;50.502;8.190;2022-07-22T00:00:11;6.88;;;4.13;;
66012;SDS011;52783;50.502;8.190;2022-07-22T00:02:37;12.95;;;4.80;;
66012;SDS011;52783;50.502;8.190;2022-07-22T00:05:03;7.97;;;4.22;;
66012;SDS011;52783;50.502;8.190;2022-07-22T00:07:29;8.57;;;4.68;;
66012;SDS011;52783;50.502;8.190;2022-07-22T00:09:55;7.47;;;3.90;;
66012;SDS011;52783;50.502;8.190;2022-07-22T00:12:20;10.43;;;4.10;;
66012;SDS011;52783;50.502;8.190;2022-07-22T00:14:46;7.82;;;4.50;;
66012;SDS011;52783;50.502;8.190;2022-07-22T00:17:11;6.57;;;3.97;;
66012;SDS011;52783;50.502;8.190;2022-07-22T00:19:37;6.72;;;3.85;;
66012;SDS011;52783;50.502;8.190;2022-07-22T00:22:03;10.98;;;4.15;;
66012;SDS011;52783;50.502;8.190;2022-07-22T00:24:29;9.48;;;4.07;;
66012;SDS011;52783;50.502;8.190;2022-07-22T00:26:54;6.78;;;4.32;;
66012;SDS011;52783;50.502;8.190;2022-07-22T00:29:20;10.13;;;4.10;;
66012;SDS011;52783;50.502;8.190;2022-07-22T00:31:46;13.05;;;4.57;;
66012;SDS011;52783;50.502;8.190;2022-07-22T00:34:11;9.30;;;4.30;;
66012;SDS011;52783;50.502;8.190;2022-07-22T00:36:37;8.77;;;4.57;;
66012;SDS011;52783;50.502;8.190;2022-07-22T00:39:02;7.57;;;4.40;;
66012;SDS011;52783;50.502;8.190;2022-07-22T00:41:28;7.72;;;5.40;;
66012;SDS011;52783;50.502;8.190;2022-07-22T00:44:01;8.65;;;4.60;;
66012;SDS011;52783;50.502;8.190;2022-07-22T00:46:29;6.80;;;4.43;;
66012;SDS011;52783;50.502;8.190;2022-07-22T00:48:55;8.48;;;4.80;;
66012;SDS011;52783;50.502;8.190;2022-07-22T00:51:23;10.95;;;4.80;;
66012;SDS011;52783;50.502;8.190;2022-07-22T00:53:50;8.35;;;4.55;;
66012;SDS011;52783;50.502;8.190;2022-07-22T00:56:16;8.63;;;4.70;;
66012;SDS011;52783;50.502;8.190;2022-07-22T00:58:43;5.70;;;3.85;;
66012;SDS011;52783;50.502;8.190;2022-07-22T01:01:10;11.82;;;5.30;;
66012;SDS011;52783;50.502;8.190;2022-07-22T01:03:35;9.65;;;6.40;;
66012;SDS011;52783;50.502;8.190;2022-07-22T01:06:01;14.35;;;6.78;;
66012;SDS011;52783;50.502;8.190;2022-07-22T01:08:26;15.45;;;6.80;;
66012;SDS011;52783;50.502;8.190;2022-07-22T01:10:52;10.57;;;6.85;;
66012;SDS011;52783;50.502;8.190;2022-07-22T01:13:18;15.02;;;7.82;;
66012;SDS011;52783;50.502;8.190;2022-07-22T01:15:43;18.02;;;8.48;;
66012;SDS011;52783;50.502;8.190;2022-07-22T01:18:09;13.25;;;8.73;;
66012;SDS011;52783;50.502;8.190;2022-07-22T01:20:35;15.43;;;9.73;;
66012;SDS011;52783;50.502;8.190;2022-07-22T01:23:01;12.48;;;9.32;;
66012;SDS011;52783;50.502;8.190;2022-07-22T01:25:26;12.73;;;9.63;;
66012;SDS011;52783;50.502;8.190;2022-07-22T01:27:53;11.27;;;9.48;;
66012;SDS011;52783;50.502;8.190;2022-07-22T01:30:19;14.45;;;9.65;;
66012;SDS011;52783;50.502;8.190;2022-07-22T01:32:44;14.57;;;9.25;;
66012;SDS011;52783;50.502;8.190;2022-07-22T01:35:10;14.77;;;9.80;;
66012;SDS011;52783;50.502;8.190;2022-07-22T01:37:36;14.73;;;10.30;;
66012;SDS011;52783;50.502;8.190;2022-07-22T01:40:01;15.20;;;10.55;;
66012;SDS011;52783;50.502;8.190;2022-07-22T01:42:28;15.23;;;10.32;;
66012;SDS011;52783;50.502;8.190;2022-07-22T01:44:53;14.73;;;9.80;;
66012;SDS011;52783;50.502;8.190;2022-07-22T01:47:19;15.10;;;8.27;;
66012;SDS011;52783;50.502;8.190;2022-07-22T01:49:44;13.98;;;8.20;;
66012;SDS011;52783;50.502;8.190;2022-07-22T01:52:10;12.25;;;8.07;;
66012;SDS011;52783;50.502;8.190;2022-07-22T01:54:35;10.15;;;8.15;;
66012;SDS011;52783;50.502;8.190;2022-07-22T02:00:11;11.73;;;7.38;;
66012;SDS011;52783;50.502;8.190;2022-07-22T02:02:37;10.48;;;7.47;;
66012;SDS011;52783;50.502;8.190;2022-07-22T02:05:03;11.95;;;7.75;;
66012;SDS011;52783;50.502;8.190;2022-07-22T02:07:30;10.60;;;7.55;;
66012;SDS011;52783;50.502;8.190;2022-07-22T02:09:56;9.32;;;7.30;;
66012;SDS011;52783;50.502;8.190;2022-07-22T02:12:22;8.07;;;7.20;;
66012;SDS011;52783;50.502;8.190;2022-07-22T02:14:48;14.32;;;8.77;;
66012;SDS011;52783;50.502;8.190;2022-07-22T02:17:14;14.07;;;9.77;;
66012;SDS011;52783;50.502;8.190;2022-07-22T02:19:40;15.38;;;10.00;;
66012;SDS011;52783;50.502;8.190;2022-07-22T02:22:06;16.10;;;10.05;;
66012;SDS011;52783;50.502;8.190;2022-07-22T02:24:32;18.48;;;10.52;;
66012;SDS011;52783;50.502;8.190;2022-07-22T02:26:58;15.82;;;10.07;;
66012;SDS011;52783;50.502;8.190;2022-07-22T02:29:23;14.85;;;10.02;;
66012;SDS011;52783;50.502;8.190;2022-07-22T02:31:49;13.45;;;9.75;;
66012;SDS011;52783;50.502;8.190;2022-07-22T02:34:15;15.55;;;10.90;;
66012;SDS011;52783;50.502;8.190;2022-07-22T02:36:41;14.88;;;10.15;;
66012;SDS011;52783;50.502;8.190;2022-07-22T02:39:07;15.50;;;9.93;;
66012;SDS011;52783;50.502;8.190;2022-07-22T02:41:32;13.93;;;9.98;;
66012;SDS011;52783;50.502;8.190;2022-07-22T02:43:58;15.93;;;10.43;;
66012;SDS011;52783;50.502;8.190;2022-07-22T02:46:24;14.38;;;10.60;;
66012;SDS011;52783;50.502;8.190;2022-07-22T02:48:51;16.33;;;10.38;;
66012;SDS011;52783;50.502;8.190;2022-07-22T02:51:16;16.60;;;10.18;;
66012;SDS011;52783;50.502;8.190;2022-07-22T02:53:42;16.75;;;9.00;;
66012;SDS011;52783;50.502;8.190;2022-07-22T02:56:07;17.10;;;10.02;;
66012;SDS011;52783;50.502;8.190;2022-07-22T02:58:33;15.90;;;10.00;;
66012;SDS011;52783;50.502;8.190;2022-07-22T03:00:59;14.65;;;9.00;;
66012;SDS011;52783;50.502;8.190;2022-07-22T03:03:24;14.48;;;8.57;;
66012;SDS011;52783;50.502;8.190;2022-07-22T03:05:50;14.95;;;9.70;;
66012;SDS011;52783;50.502;8.190;2022-07-22T03:08:16;15.80;;;9.20;;
66012;SDS011;52783;50.502;8.190;2022-07-22T03:10:42;12.23;;;8.73;;
66012;SDS011;52783;50.502;8.190;2022-07-22T03:13:07;13.10;;;8.38;;
66012;SDS011;52783;50.502;8.190;2022-07-22T03:15:33;15.60;;;8.48;;
66012;SDS011;52783;50.502;8.190;2022-07-22T03:17:59;12.43;;;7.43;;
66012;SDS011;52783;50.502;8.190;2022-07-22T03:20:24;9.25;;;6.68;;
66012;SDS011;52783;50.502;8.190;2022-07-22T03:22:50;10.10;;;6.47;;
66012;SDS011;52783;50.502;8.190;2022-07-22T03:25:15;12.10;;;6.70;;
66012;SDS011;52783;50.502;8.190;2022-07-22T03:27:41;9.13;;;6.40;;
66012;SDS011;52783;50.502;8.190;2022-07-22T03:30:06;9.35;;;5.50;;
66012;SDS011;52783;50.502;8.190;2022-07-22T03:32:32;9.38;;;5.30;;
66012;SDS011;52783;50.502;8.190;2022-07-22T03:34:58;9.90;;;5.30;;
66012;SDS011;52783;50.502;8.190;2022-07-22T03:37:23;7.65;;;5.50;;
66012;SDS011;52783;50.502;8.190;2022-07-22T03:39:49;9.45;;;5.90;;
66012;SDS011;52783;50.502;8.190;2022-07-22T03:42:14;10.60;;;5.82;;
66012;SDS011;52783;50.502;8.190;2022-07-22T03:44:40;8.18;;;5.50;;
66012;SDS011;52783;50.502;8.190;2022-07-22T03:47:05;6.95;;;5.22;;
66012;SDS011;52783;50.502;8.190;2022-07-22T03:49:31;7.68;;;4.93;;
66012;SDS011;52783;50.502;8.190;2022-07-22T03:51:57;5.78;;;4.68;;
66012;SDS011;52783;50.502;8.190;2022-07-22T03:54:23;6.93;;;5.05;;
66012;SDS011;52783;50.502;8.190;2022-07-22T03:56:48;9.98;;;5.35;;
66012;SDS011;52783;50.502;8.190;2022-07-22T03:59:15;9.90;;;5.15;;
66012;SDS011;52783;50.502;8.190;2022-07-22T04:01:41;6.75;;;4.90;;
66012;SDS011;52783;50.502;8.190;2022-07-22T04:04:07;12.95;;;4.97;;
66012;SDS011;52783;50.502;8.190;2022-07-22T04:06:32;13.13;;;4.78;;
66012;SDS011;52783;50.502;8.190;2022-07-22T04:08:58;7.13;;;4.40;;
66012;SDS011;52783;50.502;8.190;2022-07-22T04:11:23;8.93;;;5.43;;
66012;SDS011;52783;50.502;8.190;2022-07-22T04:13:49;10.05;;;4.97;;
66012;SDS011;52783;50.502;8.190;2022-07-22T04:16:14;9.38;;;4.80;;
66012;SDS011;52783;50.502;8.190;2022-07-22T04:18:40;8.85;;;5.13;;
66012;SDS011;52783;50.502;8.190;2022-07-22T04:21:06;6.40;;;5.07;;
66012;SDS011;52783;50.502;8.190;2022-07-22T04:23:31;7.93;;;5.35;;
66012;SDS011;52783;50.502;8.190;2022-07-22T04:25:57;9.00;;;5.63;;
66012;SDS011;52783;50.502;8.190;2022-07-22T04:28:23;8.80;;;5.40;;
66012;SDS011;52783;50.502;8.190;2022-07-22T04:30:48;8.38;;;5.30;;
66012;SDS011;52783;50.502;8.190;2022-07-22T04:33:14;10.10;;;5.18;;
66012;SDS011;52783;50.502;8.190;2022-07-22T04:35:39;8.07;;;5.28;;
66012;SDS011;52783;50.502;8.190;2022-07-22T04:38:05;7.82;;;5.18;;
66012;SDS011;52783;50.502;8.190;2022-07-22T04:40:30;8.27;;;5.15;;
66012;SDS011;52783;50.502;8.190;2022-07-22T04:42:56;11.02;;;5.43;;
66012;SDS011;52783;50.502;8.190;2022-07-22T04:45:22;6.60;;;4.97;;
66012;SDS011;52783;50.502;8.190;2022-07-22T04:47:47;11.23;;;5.70;;
66012;SDS011;52783;50.502;8.190;2022-07-22T04:50:13;8.32;;;5.88;;
66012;SDS011;52783;50.502;8.190;2022-07-22T04:52:38;9.38;;;5.95;;
66012;SDS011;52783;50.502;8.190;2022-07-22T04:55:04;9.63;;;5.55;;
66012;SDS011;52783;50.502;8.190;2022-07-22T04:57:30;11.63;;;6.85;;
66012;SDS011;52783;50.502;8.190;2022-07-22T04:59:56;8.38;;;5.57;;
66012;SDS011;52783;50.502;8.190;2022-07-22T05:02:21;10.43;;;6.18;;
66012;SDS011;52783;50.502;8.190;2022-07-22T05:04:47;9.70;;;6.00;;
66012;SDS011;52783;50.502;8.190;2022-07-22T05:07:13;9.57;;;6.30;;
66012;SDS011;52783;50.502;8.190;2022-07-22T05:09:39;9.98;;;6.63;;
66012;SDS011;52783;50.502;8.190;2022-07-22T05:12:04;11.90;;;6.80;;
66012;SDS011;52783;50.502;8.190;2022-07-22T05:14:30;8.52;;;6.13;;
66012;SDS011;52783;50.502;8.190;2022-07-22T05:16:55;7.68;;;5.93;;
66012;SDS011;52783;50.502;8.190;2022-07-22T05:19:21;12.77;;;5.93;;
66012;SDS011;52783;50.502;8.190;2022-07-22T05:21:47;9.68;;;6.45;;
66012;SDS011;52783;50.502;8.190;2022-07-22T05:24:12;8.45;;;5.82;;
66012;SDS011;52783;50.502;8.190;2022-07-22T05:26:38;9.73;;;6.22;;
66012;SDS011;52783;50.502;8.190;2022-07-22T05:29:04;9.13;;;6.03;;
66012;SDS011;52783;50.502;8.190;2022-07-22T05:31:29;9.05;;;6.05;;
66012;SDS011;52783;50.502;8.190;2022-07-22T05:33:55;7.70;;;5.68;;
66012;SDS011;52783;50.502;8.190;2022-07-22T05:36:21;11.90;;;6.80;;
66012;SDS011;52783;50.502;8.190;2022-07-22T05:38:47;10.65;;;6.63;;
66012;SDS011;52783;50.502;8.190;2022-07-22T05:41:12;10.63;;;6.40;;
66012;SDS011;52783;50.502;8.190;2022-07-22T05:43:38;11.60;;;6.05;;
66012;SDS011;52783;50.502;8.190;2022-07-22T05:46:04;10.27;;;6.28;;
66012;SDS011;52783;50.502;8.190;2022-07-22T05:48:29;8.38;;;5.30;;
66012;SDS011;52783;50.502;8.190;2022-07-22T05:50:55;10.63;;;5.63;;
66012;SDS011;52783;50.502;8.190;2022-07-22T05:53:21;9.88;;;5.95;;
66012;SDS011;52783;50.502;8.190;2022-07-22T05:55:47;9.10;;;5.63;;
66012;SDS011;52783;50.502;8.190;2022-07-22T05:58:12;11.18;;;5.90;;
66012;SDS011;52783;50.502;8.190;2022-07-22T06:00:38;9.02;;;5.65;;
66012;SDS011;52783;50.502;8.190;2022-07-22T06:03:04;8.32;;;6.15;;
66012;SDS011;52783;50.502;8.190;2022-07-22T06:05:30;9.18;;;5.60;;
66012;SDS011;52783;50.502;8.190;2022-07-22T06:07:56;8.68;;;5.43;;
66012;SDS011;52783;50.502;8.190;2022-07-22T06:10:21;8.20;;;4.88;;
66012;SDS011;52783;50.502;8.190;2022-07-22T06:12:47;7.53;;;4.88;;
66012;SDS011;52783;50.502;8.190;2022-07-22T06:15:12;8.15;;;5.43;;
66012;SDS011;52783;50.502;8.190;2022-07-22T06:17:38;6.80;;;5.03;;
66012;SDS011;52783;50.502;8.190;2022-07-22T06:20:04;6.28;;;4.57;;
66012;SDS011;52783;50.502;8.190;2022-07-22T06:22:30;8.00;;;4.68;;
66012;SDS011;52783;50.502;8.190;2022-07-22T06:24:55;7.30;;;4.50;;
66012;SDS011;52783;50.502;8.190;2022-07-22T06:27:21;8.65;;;5.35;;
66012;SDS011;52783;50.502;8.190;2022-07-22T06:29:46;6.95;;;4.78;;
66012;SDS011;52783;50.502;8.190;2022-07-22T06:32:12;8.23;;;5.20;;
66012;SDS011;52783;50.502;8.190;2022-07-22T06:34:37;7.15;;;4.90;;
66012;SDS011;52783;50.502;8.190;2022-07-22T06:37:03;6.30;;;4.88;;
66012;SDS011;52783;50.502;8.190;2022-07-22T06:39:29;8.25;;;4.85;;
66012;SDS011;52783;50.502;8.190;2022-07-22T06:41:54;6.13;;;4.50;;
66012;SDS011;52783;50.502;8.190;2022-07-22T06:44:20;4.30;;;3.15;;
66012;SDS011;52783;50.502;8.190;2022-07-22T06:46:45;7.22;;;3.35;;
66012;SDS011;52783;50.502;8.190;2022-07-22T06:49:11;5.47;;;3.30;;
66012;SDS011;52783;50.502;8.190;2022-07-22T06:51:36;6.28;;;3.30;;
66012;SDS011;52783;50.502;8.190;2022-07-22T06:54:02;4.97;;;3.67;;
66012;SDS011;52783;50.502;8.190;2022-07-22T06:56:28;5.38;;;3.40;;
66012;SDS011;52783;50.502;8.190;2022-07-22T06:58:53;5.85;;;3.70;;
66012;SDS011;52783;50.502;8.190;2022-07-22T07:01:19;6.07;;;3.95;;
66012;SDS011;52783;50.502;8.190;2022-07-22T07:03:44;5.53;;;3.47;;
66012;SDS011;52783;50.502;8.190;2022-07-22T07:06:11;5.47;;;3.65;;
66012;SDS011;52783;50.502;8.190;2022-07-22T07:08:37;6.60;;;3.60;;
66012;SDS011;52783;50.502;8.190;2022-07-22T07:11:04;7.55;;;3.38;;
66012;SDS011;52783;50.502;8.190;2022-07-22T07:13:29;8.50;;;3.50;;
66012;SDS011;52783;50.502;8.190;2022-07-22T07:15:55;3.60;;;3.28;;
66012;SDS011;52783;50.502;8.190;2022-07-22T07:18:21;8.68;;;3.28;;
66012;SDS011;52783;50.502;8.190;2022-07-22T07:20:47;7.30;;;3.40;;
66012;SDS011;52783;50.502;8.190;2022-07-22T07:23:12;5.30;;;3.85;;
66012;SDS011;52783;50.502;8.190;2022-07-22T07:25:38;5.95;;;3.40;;
66012;SDS011;52783;50.502;8.190;2022-07-22T07:28:04;16.45;;;3.45;;
66012;SDS011;52783;50.502;8.190;2022-07-22T07:30:29;5.53;;;3.60;;
66012;SDS011;52783;50.502;8.190;2022-07-22T07:32:55;5.05;;;3.60;;
66012;SDS011;52783;50.502;8.190;2022-07-22T07:35:20;4.65;;;3.40;;
66012;SDS011;52783;50.502;8.190;2022-07-22T07:37:46;6.43;;;3.33;;
66012;SDS011;52783;50.502;8.190;2022-07-22T07:40:12;5.13;;;3.40;;
66012;SDS011;52783;50.502;8.190;2022-07-22T07:42:37;3.78;;;3.20;;
66012;SDS011;52783;50.502;8.190;2022-07-22T07:45:03;3.63;;;2.90;;
66012;SDS011;52783;50.502;8.190;2022-07-22T07:47:29;3.40;;;3.10;;
66012;SDS011;52783;50.502;8.190;2022-07-22T07:49:55;5.05;;;3.25;;
66012;SDS011;52783;50.502;8.190;2022-07-22T07:52:22;4.18;;;2.92;;
66012;SDS011;52783;50.502;8.190;2022-07-22T07:54:48;4.03;;;3.00;;
66012;SDS011;52783;50.502;8.190;2022-07-22T07:57:14;7.38;;;3.30;;
66012;SDS011;52783;50.502;8.190;2022-07-22T07:59:39;5.40;;;3.13;;
66012;SDS011;52783;50.502;8.190;2022-07-22T08:02:05;3.38;;;2.50;;
66012;SDS011;52783;50.502;8.190;2022-07-22T08:04:32;3.10;;;2.80;;
66012;SDS011;52783;50.502;8.190;2022-07-22T08:06:58;4.60;;;2.88;;
66012;SDS011;52783;50.502;8.190;2022-07-22T08:09:24;3.63;;;3.00;;
66012;SDS011;52783;50.502;8.190;2022-07-22T08:11:49;2.78;;;2.58;;
66012;SDS011;52783;50.502;8.190;2022-07-22T08:14:15;3.70;;;2.75;;
66012;SDS011;52783;50.502;8.190;2022-07-22T08:16:41;3.45;;;2.50;;
66012;SDS011;52783;50.502;8.190;2022-07-22T08:19:07;5.22;;;3.10;;
66012;SDS011;52783;50.502;8.190;2022-07-22T08:21:33;4.95;;;2.60;;
66012;SDS011;52783;50.502;8.190;2022-07-22T08:23:58;5.15;;;2.80;;
66012;SDS011;52783;50.502;8.190;2022-07-22T08:26:24;7.35;;;2.42;;
66012;SDS011;52783;50.502;8.190;2022-07-22T08:28:50;5.78;;;2.67;;
66012;SDS011;52783;50.502;8.190;2022-07-22T08:31:15;2.55;;;2.35;;
66012;SDS011;52783;50.502;8.190;2022-07-22T08:33:41;3.00;;;2.53;;
66012;SDS011;52783;50.502;8.190;2022-07-22T08:36:07;4.70;;;2.75;;
66012;SDS011;52783;50.502;8.190;2022-07-22T08:38:32;5.50;;;2.45;;
66012;SDS011;52783;50.502;8.190;2022-07-22T08:40:58;7.53;;;2.83;;
66012;SDS011;52783;50.502;8.190;2022-07-22T08:43:26;4.18;;;3.00;;
66012;SDS011;52783;50.502;8.190;2022-07-22T08:45:52;4.50;;;2.80;;
66012;SDS011;52783;50.502;8.190;2022-07-22T08:48:18;4.05;;;2.88;;
66012;SDS011;52783;50.502;8.190;2022-07-22T08:50:44;3.03;;;2.70;;
66012;SDS011;52783;50.502;8.190;2022-07-22T08:53:10;5.18;;;2.67;;
66012;SDS011;52783;50.502;8.190;2022-07-22T08:55:44;4.85;;;2.67;;
66012;SDS011;52783;50.502;8.190;2022-07-22T08:58:11;3.28;;;2.78;;
66012;SDS011;52783;50.502;8.190;2022-07-22T09:00:37;2.83;;;2.40;;
66012;SDS011;52783;50.502;8.190;2022-07-22T09:03:16;5.07;;;2.53;;
66012;SDS011;52783;50.502;8.190;2022-07-22T09:05:47;6.50;;;2.80;;
66012;SDS011;52783;50.502;8.190;2022-07-22T09:08:13;4.90;;;2.60;;
66012;SDS011;52783;50.502;8.190;2022-07-22T09:10:39;2.95;;;2.30;;
66012;SDS011;52783;50.502;8.190;2022-07-22T09:13:06;3.67;;;2.88;;
66012;SDS011;52783;50.502;8.190;2022-07-22T09:15:33;3.88;;;2.78;;
66012;SDS011;52783;50.502;8.190;2022-07-22T09:18:05;3.83;;;2.88;;
66012;SDS011;52783;50.502;8.190;2022-07-22T09:20:32;4.50;;;2.63;;
66012;SDS011;52783;50.502;8.190;2022-07-22T09:22:58;4.97;;;2.60;;
66012;SDS011;52783;50.502;8.190;2022-07-22T09:25:34;4.07;;;2.80;;
66012;SDS011;52783;50.502;8.190;2022-07-22T09:30:33;3.00;;;2.70;;
66012;SDS011;52783;50.502;8.190;2022-07-22T09:33:01;3.22;;;2.72;;
66012;SDS011;52783;50.502;8.190;2022-07-22T09:35:27;5.32;;;3.00;;
66012;SDS011;52783;50.502;8.190;2022-07-22T09:37:58;3.22;;;2.72;;
66012;SDS011;52783;50.502;8.190;2022-07-22T09:40:29;4.90;;;2.83;;
66012;SDS011;52783;50.502;8.190;2022-07-22T09:42:57;4.13;;;2.95;;
66012;SDS011;52783;50.502;8.190;2022-07-22T09:45:25;5.15;;;2.80;;
66012;SDS011;52783;50.502;8.190;2022-07-22T09:47:53;3.15;;;2.50;;
66012;SDS011;52783;50.502;8.190;2022-07-22T09:50:23;3.03;;;2.75;;
66012;SDS011;52783;50.502;8.190;2022-07-22T09:52:57;4.03;;;2.83;;
66012;SDS011;52783;50.502;8.190;2022-07-22T09:55:25;3.17;;;2.85;;
66012;SDS011;52783;50.502;8.190;2022-07-22T09:57:52;7.60;;;2.95;;
66012;SDS011;52783;50.502;8.190;2022-07-22T10:00:20;6.28;;;3.15;;
66012;SDS011;52783;50.502;8.190;2022-07-22T10:02:48;6.60;;;2.95;;
66012;SDS011;52783;50.502;8.190;2022-07-22T10:05:20;2.83;;;2.63;;
66012;SDS011;52783;50.502;8.190;2022-07-22T10:07:47;3.38;;;2.78;;
66012;SDS011;52783;50.502;8.190;2022-07-22T10:10:15;5.55;;;3.08;;
66012;SDS011;52783;50.502;8.190;2022-07-22T10:12:43;3.00;;;2.60;;
66012;SDS011;52783;50.502;8.190;2022-07-22T10:15:10;7.18;;;2.92;;
66012;SDS011;52783;50.502;8.190;2022-07-22T10:17:37;4.45;;;3.08;;
66012;SDS011;52783;50.502;8.190;2022-07-22T10:20:08;3.15;;;2.85;;
66012;SDS011;52783;50.502;8.190;2022-07-22T10:25:10;5.50;;;3.53;;
66012;SDS011;52783;50.502;8.190;2022-07-22T10:27:48;3.63;;;3.28;;
66012;SDS011;52783;50.502;8.190;2022-07-22T10:30:22;4.82;;;3.33;;
66012;SDS011;52783;50.502;8.190;2022-07-22T10:38:24;3.22;;;2.90;;
66012;SDS011;52783;50.502;8.190;2022-07-22T10:41:00;5.38;;;3.33;;
66012;SDS011;52783;50.502;8.190;2022-07-22T10:43:45;7.20;;;3.10;;
66012;SDS011;52783;50.502;8.190;2022-07-22T10:46:12;4.95;;;2.97;;
66012;SDS011;52783;50.502;8.190;2022-07-22T10:56:29;4.65;;;3.38;;
66012;SDS011;52783;50.502;8.190;2022-07-22T11:04:09;4.78;;;3.22;;
66012;SDS011;52783;50.502;8.190;2022-07-22T11:06:37;4.03;;;3.50;;
66012;SDS011;52783;50.502;8.190;2022-07-22T11:09:05;4.88;;;3.53;;
66012;SDS011;52783;50.502;8.190;2022-07-22T11:11:33;6.00;;;3.95;;
66012;SDS011;52783;50.502;8.190;2022-07-22T11:14:14;5.28;;;3.60;;
66012;SDS011;52783;50.502;8.190;2022-07-22T11:16:53;6.75;;;3.80;;
66012;SDS011;52783;50.502;8.190;2022-07-22T11:19:21;6.95;;;4.00;;
66012;SDS011;52783;50.502;8.190;2022-07-22T11:21:50;5.05;;;3.72;;
66012;SDS011;52783;50.502;8.190;2022-07-22T11:24:17;4.10;;;3.50;;
66012;SDS011;52783;50.502;8.190;2022-07-22T11:26:48;4.45;;;3.45;;
66012;SDS011;52783;50.502;8.190;2022-07-22T11:29:16;7.32;;;3.60;;
66012;SDS011;52783;50.502;8.190;2022-07-22T11:31:42;4.30;;;3.40;;
66012;SDS011;52783;50.502;8.190;2022-07-22T11:34:12;6.93;;;3.72;;
66012;SDS011;52783;50.502;8.190;2022-07-22T11:36:40;7.25;;;3.85;;
66012;SDS011;52783;50.502;8.190;2022-07-22T11:39:08;5.38;;;3.60;;
66012;SDS011;52783;50.502;8.190;2022-07-22T11:41:35;10.20;;;3.80;;
66012;SDS011;52783;50.502;8.190;2022-07-22T11:44:01;7.18;;;3.47;;
66012;SDS011;52783;50.502;8.190;2022-07-22T11:46:27;6.43;;;3.67;;
66012;SDS011;52783;50.502;8.190;2022-07-22T11:48:59;9.07;;;3.67;;
66012;SDS011;52783;50.502;8.190;2022-07-22T11:51:27;8.88;;;3.72;;
66012;SDS011;52783;50.502;8.190;2022-07-22T11:53:55;6.90;;;3.88;;
66012;SDS011;52783;50.502;8.190;2022-07-22T11:56:20;5.63;;;3.47;;
66012;SDS011;52783;50.502;8.190;2022-07-22T11:58:47;7.45;;;3.30;;
66012;SDS011;52783;50.502;8.190;2022-07-22T12:01:21;4.88;;;3.58;;
66012;SDS011;52783;50.502;8.190;2022-07-22T12:03:52;9.43;;;3.45;;
66012;SDS011;52783;50.502;8.190;2022-07-22T12:06:20;5.25;;;3.70;;
66012;SDS011;52783;50.502;8.190;2022-07-22T12:08:51;6.30;;;3.72;;
66012;SDS011;52783;50.502;8.190;2022-07-22T12:11:20;13.10;;;3.63;;
66012;SDS011;52783;50.502;8.190;2022-07-22T12:13:49;4.45;;;3.50;;
66012;SDS011;52783;50.502;8.190;2022-07-22T12:16:16;5.07;;;3.50;;
66012;SDS011;52783;50.502;8.190;2022-07-22T12:18:51;7.00;;;3.35;;
66012;SDS011;52783;50.502;8.190;2022-07-22T12:21:18;4.25;;;3.35;;
66012;SDS011;52783;50.502;8.190;2022-07-22T12:24:24;3.72;;;3.30;;
66012;SDS011;52783;50.502;8.190;2022-07-22T12:26:37;4.07;;;3.60;;
66012;SDS011;52783;50.502;8.190;2022-07-22T12:29:14;3.72;;;3.10;;
66012;SDS011;52783;50.502;8.190;2022-07-22T12:31:45;8.30;;;3.47;;
66012;SDS011;52783;50.502;8.190;2022-07-22T12:34:13;4.55;;;3.30;;
66012;SDS011;52783;50.502;8.190;2022-07-22T12:36:44;4.00;;;3.20;;
66012;SDS011;52783;50.502;8.190;2022-07-22T12:39:12;5.05;;;3.10;;
66012;SDS011;52783;50.502;8.190;2022-07-22T12:41:45;6.63;;;3.45;;
66012;SDS011;52783;50.502;8.190;2022-07-22T12:47:05;5.57;;;3.70;;
66012;SDS011;52783;50.502;8.190;2022-07-22T12:49:30;6.95;;;3.30;;
66012;SDS011;52783;50.502;8.190;2022-07-22T12:52:09;4.90;;;3.20;;
66012;SDS011;52783;50.502;8.190;2022-07-22T12:54:38;9.00;;;3.70;;
66012;SDS011;52783;50.502;8.190;2022-07-22T12:57:05;7.97;;;3.40;;
66012;SDS011;52783;50.502;8.190;2022-07-22T12:59:32;5.47;;;3.17;;
66012;SDS011;52783;50.502;8.190;2022-07-22T13:01:58;5.55;;;3.50;;
66012;SDS011;52783;50.502;8.190;2022-07-22T13:04:24;4.63;;;3.60;;
66012;SDS011;52783;50.502;8.190;2022-07-22T13:06:49;4.75;;;3.60;;
66012;SDS011;52783;50.502;8.190;2022-07-22T13:09:15;4.50;;;3.25;;
66012;SDS011;52783;50.502;8.190;2022-07-22T13:11:41;6.05;;;3.50;;
66012;SDS011;52783;50.502;8.190;2022-07-22T13:14:10;5.32;;;3.30;;
66012;SDS011;52783;50.502;8.190;2022-07-22T13:16:35;6.53;;;3.42;;
66012;SDS011;52783;50.502;8.190;2022-07-22T13:19:01;7.93;;;3.63;;
66012;SDS011;52783;50.502;8.190;2022-07-22T13:21:27;3.80;;;3.28;;
66012;SDS011;52783;50.502;8.190;2022-07-22T13:23:52;5.28;;;3.70;;
66012;SDS011;52783;50.502;8.190;2022-07-22T13:26:18;11.43;;;3.45;;
66012;SDS011;52783;50.502;8.190;2022-07-22T13:28:44;6.03;;;3.38;;
66012;SDS011;52783;50.502;8.190;2022-07-22T13:31:10;4.68;;;3.53;;
66012;SDS011;52783;50.502;8.190;2022-07-22T13:33:35;4.00;;;3.50;;
66012;SDS011;52783;50.502;8.190;2022-07-22T13:36:01;4.65;;;3.40;;
66012;SDS011;52783;50.502;8.190;2022-07-22T13:38:27;4.05;;;3.22;;
66012;SDS011;52783;50.502;8.190;2022-07-22T13:40:53;5.35;;;3.22;;
66012;SDS011;52783;50.502;8.190;2022-07-22T13:43:19;8.00;;;3.60;;
66012;SDS011;52783;50.502;8.190;2022-07-22T13:45:45;6.30;;;3.60;;
66012;SDS011;52783;50.502;8.190;2022-07-22T13:48:11;9.00;;;3.20;;
66012;SDS011;52783;50.502;8.190;2022-07-22T13:50:37;6.38;;;3.50;;
66012;SDS011;52783;50.502;8.190;2022-07-22T13:53:02;8.27;;;3.65;;
66012;SDS011;52783;50.502;8.190;2022-07-22T13:55:28;4.25;;;3.40;;
66012;SDS011;52783;50.502;8.190;2022-07-22T13:57:55;5.38;;;3.33;;
66012;SDS011;52783;50.502;8.190;2022-07-22T14:00:22;8.75;;;3.63;;
66012;SDS011;52783;50.502;8.190;2022-07-22T14:02:48;6.28;;;3.70;;
66012;SDS011;52783;50.502;8.190;2022-07-22T14:05:14;5.63;;;3.63;;
66012;SDS011;52783;50.502;8.190;2022-07-22T14:07:40;5.72;;;3.30;;
66012;SDS011;52783;50.502;8.190;2022-07-22T14:10:06;4.32;;;3.25;;
66012;SDS011;52783;50.502;8.190;2022-07-22T14:12:31;5.65;;;3.40;;
66012;SDS011;52783;50.502;8.190;2022-07-22T14:14:57;7.50;;;3.90;;
66012;SDS011;52783;50.502;8.190;2022-07-22T14:17:22;4.70;;;3.30;;
66012;SDS011;52783;50.502;8.190;2022-07-22T14:19:48;8.10;;;3.45;;
66012;SDS011;52783;50.502;8.190;2022-07-22T14:22:14;5.93;;;3.60;;
66012;SDS011;52783;50.502;8.190;2022-07-22T14:24:42;9.20;;;3.83;;
66012;SDS011;52783;50.502;8.190;2022-07-22T14:27:08;7.50;;;3.92;;
66012;SDS011;52783;50.502;8.190;2022-07-22T14:29:33;9.35;;;3.47;;
66012;SDS011;52783;50.502;8.190;2022-07-22T14:31:59;4.13;;;3.72;;
66012;SDS011;52783;50.502;8.190;2022-07-22T14:34:24;6.93;;;3.72;;
66012;SDS011;52783;50.502;8.190;2022-07-22T14:36:50;4.43;;;3.53;;
66012;SDS011;52783;50.502;8.190;2022-07-22T14:39:16;6.32;;;3.60;;
66012;SDS011;52783;50.502;8.190;2022-07-22T14:41:41;5.57;;;3.50;;
66012;SDS011;52783;50.502;8.190;2022-07-22T14:44:07;8.32;;;4.13;;
66012;SDS011;52783;50.502;8.190;2022-07-22T14:46:33;8.48;;;3.72;;
66012;SDS011;52783;50.502;8.190;2022-07-22T14:48:58;4.22;;;3.17;;
66012;SDS011;52783;50.502;8.190;2022-07-22T14:51:24;6.15;;;3.63;;
66012;SDS011;52783;50.502;8.190;2022-07-22T14:53:49;6.03;;;3.70;;
66012;SDS011;52783;50.502;8.190;2022-07-22T14:56:15;5.60;;;4.00;;
66012;SDS011;52783;50.502;8.190;2022-07-22T14:58:41;5.80;;;3.08;;
66012;SDS011;52783;50.502;8.190;2022-07-22T15:01:07;4.30;;;3.70;;
66012;SDS011;52783;50.502;8.190;2022-07-22T15:03:32;13.95;;;3.75;;
66012;SDS011;52783;50.502;8.190;2022-07-22T15:05:58;10.00;;;4.20;;
66012;SDS011;52783;50.502;8.190;2022-07-22T15:08:23;8.18;;;4.20;;